Time;durP1;ratioP1;P1;durP2;ratioP2;P2;SDS_P1;SDS_P2;PMS_P1;PMS_P2;Temp;Humidity;BMP_temperature;BMP_pressure;BME280_temperature;BME280_humidity;BME280_pressure;Samples;Min_cycle;Max_cycle;Signal;HPM_P1;HPM_P2
2023/04/16 00:02:03;;;;;;;6.20;1.90;;;10.90;97.80;;;;;;5025493;28;20205;-33
2023/04/16 00:04:33;;;;;;;9.60;2.07;;;10.90;97.90;;;;;;5019056;28;20648;-33
2023/04/16 00:07:01;;;;;;;6.63;1.47;;;10.90;97.90;;;;;;5017295;28;20209;-33
2023/04/16 00:09:33;;;;;;;5.80;1.60;;;10.90;98.00;;;;;;5005162;28;20248;-32
2023/04/16 00:12:02;;;;;;;5.77;1.80;;;10.90;98.00;;;;;;5003242;28;20609;-32
2023/04/16 00:14:31;;;;;;;8.63;1.80;;;10.90;98.00;;;;;;5007129;28;20711;-33
2023/04/16 00:17:03;;;;;;;7.73;2.00;;;10.90;97.80;;;;;;5021531;28;20202;-33
2023/04/16 00:19:33;;;;;;;4.47;1.50;;;10.90;98.40;;;;;;5020474;28;20232;-33
2023/04/16 00:22:05;;;;;;;5.13;1.60;;;11.00;97.80;;;;;;5009379;28;20217;-33
2023/04/16 00:24:39;;;;;;;4.57;1.77;;;11.00;97.90;;;;;;5003660;28;20260;-32
2023/04/16 00:27:06;;;;;;;6.50;1.43;;;11.00;97.90;;;;;;5011178;28;20391;-32
2023/04/16 00:29:34;;;;;;;7.30;2.10;;;11.00;97.90;;;;;;5022939;28;20228;-32
2023/04/16 00:32:03;;;;;;;8.57;1.67;;;11.00;98.00;;;;;;5023371;28;20238;-32
2023/04/16 00:34:33;;;;;;;7.43;1.60;;;11.00;98.10;;;;;;5024186;28;20274;-32
2023/04/16 00:37:02;;;;;;;4.73;1.40;;;11.00;98.20;;;;;;5022920;28;20242;-33
2023/04/16 00:39:31;;;;;;;3.03;1.33;;;11.00;98.00;;;;;;5018258;28;20209;-32
2023/04/16 00:42:00;;;;;;;4.30;1.40;;;11.00;98.00;;;;;;5015542;28;20205;-32
2023/04/16 00:44:34;;;;;;;5.97;1.50;;;11.00;97.90;;;;;;5017367;28;20638;-32
2023/04/16 00:47:03;;;;;;;5.37;1.23;;;11.00;97.80;;;;;;5022030;28;20457;-32
2023/04/16 00:49:32;;;;;;;6.07;1.47;;;11.00;97.80;;;;;;5023582;28;20264;-32
2023/04/16 00:52:02;;;;;;;5.40;1.30;;;11.00;97.90;;;;;;5025574;28;20470;-35
2023/04/16 00:54:32;;;;;;;5.67;1.30;;;11.00;97.90;;;;;;5025382;28;20701;-32
2023/04/16 00:57:01;;;;;;;2.77;0.90;;;11.00;98.00;;;;;;5006584;28;20235;-32
2023/04/16 00:59:29;;;;;;;3.73;1.00;;;11.00;98.00;;;;;;5010255;28;20201;-34
2023/04/16 01:01:58;;;;;;;3.10;0.93;;;11.00;97.90;;;;;;5007868;28;20255;-32
2023/04/16 01:04:25;;;;;;;3.87;1.27;;;11.10;98.10;;;;;;5010644;28;20262;-34
2023/04/16 01:06:55;;;;;;;3.93;1.10;;;11.10;97.90;;;;;;5026644;28;20719;-33
2023/04/16 01:09:23;;;;;;;4.67;1.20;;;11.10;97.90;;;;;;5027242;28;20295;-34
2023/04/16 01:11:52;;;;;;;3.97;1.10;;;11.10;97.90;;;;;;5025351;28;20564;-35
2023/04/16 01:14:19;;;;;;;5.27;1.83;;;11.10;97.90;;;;;;5026681;28;20663;-34
2023/04/16 01:16:46;;;;;;;5.00;1.30;;;11.10;98.00;;;;;;5014600;28;20539;-34
2023/04/16 01:19:18;;;;;;;2.90;1.37;;;11.10;98.00;;;;;;5027275;28;20205;-32
2023/04/16 01:21:48;;;;;;;7.47;2.17;;;11.10;98.10;;;;;;5022210;28;20228;-32
2023/04/16 01:24:19;;;;;;;6.90;1.80;;;11.10;98.10;;;;;;5007144;28;20213;-33
2023/04/16 01:26:49;;;;;;;2.87;1.67;;;11.10;98.10;;;;;;5022132;28;20215;-32
2023/04/16 01:29:16;;;;;;;6.43;1.90;;;11.10;98.40;;;;;;5026608;28;20304;-32
2023/04/16 01:31:45;;;;;;;3.37;1.77;;;11.10;98.30;;;;;;5023405;28;20339;-34
2023/04/16 01:34:13;;;;;;;5.20;2.00;;;11.10;98.20;;;;;;5007925;28;20201;-34
2023/04/16 01:36:40;;;;;;;5.87;2.33;;;11.10;98.10;;;;;;5013849;28;20286;-34
2023/04/16 01:39:12;;;;;;;2.53;1.60;;;11.10;98.20;;;;;;5028340;28;20566;-34
2023/04/16 01:41:42;;;;;;;8.73;2.57;;;11.20;98.20;;;;;;5025942;28;20211;-34
2023/04/16 01:44:12;;;;;;;6.07;2.50;;;11.20;98.30;;;;;;5009602;28;20206;-34
2023/04/16 01:46:46;;;;;;;6.67;2.60;;;11.20;98.20;;;;;;5022681;28;20233;-34
2023/04/16 01:49:15;;;;;;;6.27;2.30;;;11.20;98.30;;;;;;5019613;28;20221;-34
2023/04/16 01:51:47;;;;;;;4.77;2.10;;;11.30;98.30;;;;;;5014190;28;20230;-34
2023/04/16 01:54:19;;;;;;;4.30;2.47;;;11.30;98.30;;;;;;5022469;28;20239;-34
2023/04/16 01:56:51;;;;;;;3.80;2.40;;;11.30;98.30;;;;;;5025871;28;20236;-34
2023/04/16 01:59:20;;;;;;;6.93;2.53;;;11.30;98.30;;;;;;5027918;28;20287;-34
2023/04/16 02:01:47;;;;;;;5.97;2.37;;;11.30;98.40;;;;;;5026533;28;20244;-34
2023/04/16 02:04:15;;;;;;;5.93;2.50;;;11.30;98.40;;;;;;5016083;28;20206;-34
2023/04/16 02:06:43;;;;;;;5.90;2.37;;;11.30;98.40;;;;;;5013632;28;20212;-34
2023/04/16 02:09:10;;;;;;;6.43;2.43;;;11.30;98.50;;;;;;5026519;28;20219;-34
2023/04/16 02:11:40;;;;;;;7.30;2.50;;;11.20;98.40;;;;;;5027408;28;20217;-33
2023/04/16 02:14:07;;;;;;;4.63;2.27;;;11.30;98.50;;;;;;5027738;28;20599;-32
2023/04/16 02:16:39;;;;;;;4.93;2.27;;;11.30;98.50;;;;;;5008615;28;20208;-33
2023/04/16 02:19:11;;;;;;;4.40;2.37;;;11.30;98.50;;;;;;5024992;28;20228;-32
2023/04/16 02:21:38;;;;;;;4.27;1.93;;;11.30;98.60;;;;;;5025993;28;20221;-34
2023/04/16 02:24:07;;;;;;;5.07;2.30;;;11.30;98.60;;;;;;5027103;28;20331;-34
2023/04/16 02:26:35;;;;;;;3.40;2.30;;;11.30;99.00;;;;;;5024515;28;20213;-34
2023/04/16 02:29:04;;;;;;;4.73;2.27;;;11.30;98.80;;;;;;5011304;28;20992;-34
2023/04/16 02:31:31;;;;;;;5.37;2.30;;;11.30;98.80;;;;;;5006660;28;20229;-34
2023/04/16 02:34:02;;;;;;;3.43;2.30;;;11.30;98.80;;;;;;5007684;28;20640;-34
2023/04/16 02:36:34;;;;;;;4.27;2.17;;;11.30;98.90;;;;;;5006945;28;20301;-34
2023/04/16 02:39:01;;;;;;;2.70;2.00;;;11.30;99.00;;;;;;5015394;28;20204;-34
2023/04/16 02:41:28;;;;;;;4.03;2.60;;;11.20;98.90;;;;;;5026136;28;20573;-34
2023/04/16 02:44:00;;;;;;;4.07;2.57;;;11.20;99.10;;;;;;5024954;28;20207;-34
2023/04/16 02:46:27;;;;;;;3.93;2.23;;;11.20;99.20;;;;;;5025200;28;20255;-35
2023/04/16 02:48:59;;;;;;;5.43;2.63;;;11.20;99.20;;;;;;5025265;28;20281;-34
2023/04/16 02:51:26;;;;;;;5.50;2.53;;;11.20;99.30;;;;;;5026538;28;20231;-34
2023/04/16 02:53:56;;;;;;;4.17;2.50;;;11.20;99.20;;;;;;5022699;28;20202;-34
2023/04/16 02:56:23;;;;;;;4.23;2.70;;;11.20;99.20;;;;;;5006491;28;20240;-34
2023/04/16 02:58:52;;;;;;;5.73;2.80;;;11.20;99.40;;;;;;5015141;28;20209;-34
2023/04/16 03:01:22;;;;;;;4.20;2.50;;;11.20;99.30;;;;;;5008711;28;20209;-34
2023/04/16 03:03:54;;;;;;;2.77;2.20;;;11.20;99.30;;;;;;5021615;28;20300;-34
2023/04/16 03:06:21;;;;;;;5.47;2.80;;;11.20;99.40;;;;;;5024242;28;20209;-34
2023/04/16 03:08:50;;;;;;;4.97;2.83;;;11.20;99.30;;;;;;5026121;28;20304;-34
2023/04/16 03:11:22;;;;;;;3.23;2.30;;;11.20;99.30;;;;;;5021165;28;20279;-34
2023/04/16 03:13:54;;;;;;;5.00;2.93;;;11.20;99.40;;;;;;5004063;28;20292;-34
2023/04/16 03:16:23;;;;;;;5.40;2.57;;;11.20;99.60;;;;;;5005290;28;20210;-33
2023/04/16 03:18:53;;;;;;;3.33;2.57;;;11.20;99.50;;;;;;5003850;28;20237;-33
2023/04/16 03:21:20;;;;;;;3.23;2.30;;;11.10;99.40;;;;;;5005587;28;20264;-34
2023/04/16 03:23:52;;;;;;;4.30;2.70;;;11.20;99.70;;;;;;5002911;28;20256;-33
2023/04/16 03:26:21;;;;;;;4.23;2.67;;;11.20;99.60;;;;;;5014107;28;20300;-32
2023/04/16 03:28:48;;;;;;;5.07;2.93;;;11.20;99.60;;;;;;5022168;28;20205;-32
2023/04/16 03:31:18;;;;;;;3.40;2.60;;;11.20;99.60;;;;;;5024541;28;20595;-33
2023/04/16 03:33:50;;;;;;;4.27;3.30;;;11.20;99.60;;;;;;5006866;28;20294;-32
2023/04/16 03:36:17;;;;;;;5.67;2.80;;;11.20;99.70;;;;;;5023146;28;20207;-32
2023/04/16 03:38:45;;;;;;;4.80;2.70;;;11.20;99.70;;;;;;5004323;28;20671;-33
2023/04/16 03:41:18;;;;;;;3.83;3.00;;;11.20;99.80;;;;;;5002413;28;20268;-33
2023/04/16 03:43:48;;;;;;;3.33;2.77;;;11.20;99.80;;;;;;5004865;28;20317;-32
2023/04/16 03:46:15;;;;;;;6.00;3.23;;;11.20;99.70;;;;;;5006916;28;20212;-32
2023/04/16 03:48:45;;;;;;;5.43;3.23;;;11.20;99.80;;;;;;5004621;28;20222;-33
2023/04/16 03:51:17;;;;;;;5.13;3.00;;;11.10;99.80;;;;;;5004582;28;20220;-33
2023/04/16 03:53:44;;;;;;;5.97;3.60;;;11.10;99.80;;;;;;4987172;28;20201;-33
2023/04/16 03:56:11;;;;;;;4.63;3.30;;;11.10;99.90;;;;;;5005974;28;20307;-33
2023/04/16 03:58:39;;;;;;;4.40;3.50;;;11.10;99.90;;;;;;5007909;28;20305;-32
2023/04/16 04:01:06;;;;;;;5.70;3.83;;;11.10;99.90;;;;;;5013671;28;20296;-33
2023/04/16 04:03:35;;;;;;;6.57;3.87;;;11.10;99.90;;;;;;5020145;28;20632;-32
2023/04/16 04:06:08;;;;;;;5.07;3.97;;;11.10;99.90;;;;;;5020701;28;20204;-32
2023/04/16 04:08:40;;;;;;;6.50;4.00;;;11.10;99.90;;;;;;5015455;28;20328;-32
2023/04/16 04:11:07;;;;;;;5.10;3.50;;;11.10;99.90;;;;;;5002614;28;20708;-33
2023/04/16 04:13:37;;;;;;;7.00;3.90;;;11.10;99.90;;;;;;5002720;28;20232;-32
2023/04/16 04:16:05;;;;;;;6.73;4.00;;;11.10;99.90;;;;;;5006721;28;20205;-32
2023/04/16 04:18:37;;;;;;;6.67;4.00;;;11.10;99.90;;;;;;5018088;28;20715;-32
2023/04/16 04:21:10;;;;;;;5.37;3.70;;;11.10;99.90;;;;;;5004570;28;20201;-32
2023/04/16 04:23:41;;;;;;;6.97;4.90;;;11.10;99.90;;;;;;5004404;28;20540;-32
2023/04/16 04:26:08;;;;;;;7.20;4.60;;;11.10;99.90;;;;;;5018442;28;20242;-32
2023/04/16 04:28:38;;;;;;;4.80;4.10;;;11.10;99.90;;;;;;5002701;28;20223;-32
2023/04/16 04:31:07;;;;;;;6.83;4.87;;;11.10;99.90;;;;;;4986812;28;20263;-33
2023/04/16 04:33:36;;;;;;;7.43;4.43;;;11.10;99.90;;;;;;5002498;28;20233;-33
2023/04/16 04:36:06;;;;;;;7.00;4.33;;;11.10;99.90;;;;;;5009422;28;21066;-33
2023/04/16 04:38:33;;;;;;;7.07;5.17;;;11.10;99.90;;;;;;5021979;28;20211;-32
2023/04/16 04:41:02;;;;;;;7.90;4.60;;;11.10;99.90;;;;;;5023027;28;20658;-32
2023/04/16 04:43:32;;;;;;;7.67;5.10;;;11.10;99.90;;;;;;5023590;28;20304;-32
2023/04/16 04:45:59;;;;;;;5.73;4.20;;;11.10;99.90;;;;;;5018095;28;20996;-32
2023/04/16 04:48:27;;;;;;;7.97;4.30;;;11.10;99.90;;;;;;5003408;28;20715;-32
2023/04/16 04:50:54;;;;;;;9.13;4.80;;;11.10;99.90;;;;;;5003738;28;20225;-32
2023/04/16 04:53:21;;;;;;;7.90;4.73;;;11.10;99.90;;;;;;5004890;28;20341;-32
2023/04/16 04:55:50;;;;;;;7.53;5.00;;;11.20;99.90;;;;;;5020691;28;20240;-34
2023/04/16 04:58:27;;;;;;;8.23;5.00;;;11.20;99.90;;;;;;5021102;28;20258;-32
2023/04/16 05:00:56;;;;;;;7.20;4.87;;;11.10;99.90;;;;;;5020218;28;20260;-32
2023/04/16 05:03:23;;;;;;;5.73;4.80;;;11.10;99.90;;;;;;5017385;28;20315;-32
2023/04/16 05:05:53;;;;;;;5.80;4.90;;;11.10;99.90;;;;;;5031467;28;20696;-32
2023/04/16 05:08:23;;;;;;;5.90;4.20;;;11.10;99.90;;;;;;5008303;28;20215;-32
2023/04/16 05:10:57;;;;;;;6.73;4.17;;;11.20;99.90;;;;;;5011422;28;20300;-32
2023/04/16 05:13:28;;;;;;;7.37;4.67;;;11.10;99.90;;;;;;5013057;28;20232;-32
2023/04/16 05:16:01;;;;;;;7.40;4.83;;;11.20;99.90;;;;;;5024343;28;20313;-32
2023/04/16 05:18:35;;;;;;;6.63;4.40;;;11.10;99.90;;;;;;5016087;28;20248;-32
2023/04/16 05:21:06;;;;;;;5.37;4.20;;;11.10;99.90;;;;;;5008142;28;20201;-32
2023/04/16 05:23:36;;;;;;;6.13;4.20;;;11.10;99.90;;;;;;5016757;28;20654;-32
2023/04/16 05:26:03;;;;;;;4.30;3.40;;;11.10;99.90;;;;;;5020462;28;20299;-32
2023/04/16 05:28:32;;;;;;;6.37;3.60;;;11.10;99.90;;;;;;5020349;28;20205;-33
2023/04/16 05:31:02;;;;;;;5.33;3.40;;;11.10;99.90;;;;;;5022336;28;20324;-33
2023/04/16 05:33:32;;;;;;;6.87;3.80;;;11.10;99.90;;;;;;5038573;28;20267;-33
2023/04/16 05:36:01;;;;;;;5.50;3.50;;;11.00;99.90;;;;;;5017846;28;20202;-32
2023/04/16 05:38:28;;;;;;;4.80;3.23;;;11.00;99.90;;;;;;4998478;28;20306;-33
2023/04/16 05:40:55;;;;;;;5.77;3.60;;;11.00;99.90;;;;;;5015762;28;20209;-33
2023/04/16 05:43:24;;;;;;;5.30;3.20;;;11.00;99.90;;;;;;5005746;28;20213;-32
2023/04/16 05:45:54;;;;;;;4.83;3.40;;;11.00;99.90;;;;;;5009035;28;20576;-32
2023/04/16 05:48:26;;;;;;;6.77;3.77;;;10.90;99.90;;;;;;5023735;28;20216;-33
2023/04/16 05:50:57;;;;;;;6.87;3.60;;;11.00;99.90;;;;;;5005597;28;20688;-32
2023/04/16 05:53:27;;;;;;;6.03;3.43;;;10.90;99.90;;;;;;5008957;28;20237;-32
2023/04/16 05:55:56;;;;;;;4.57;3.50;;;10.90;99.90;;;;;;5024710;28;20252;-33
2023/04/16 05:58:23;;;;;;;5.47;3.60;;;10.90;99.90;;;;;;5015775;28;20976;-32
2023/04/16 06:00:50;;;;;;;4.57;3.20;;;10.90;99.90;;;;;;5010615;28;20251;-34
2023/04/16 06:03:20;;;;;;;5.20;3.67;;;10.90;99.90;;;;;;5043694;28;20362;-32
2023/04/16 06:05:52;;;;;;;5.30;3.60;;;10.90;99.90;;;;;;5035940;28;20304;-32
2023/04/16 06:08:19;;;;;;;6.47;3.83;;;10.90;99.90;;;;;;5020873;28;20629;-33
2023/04/16 06:10:46;;;;;;;7.60;3.97;;;10.90;99.90;;;;;;5004949;28;20224;-32
2023/04/16 06:13:18;;;;;;;4.20;2.97;;;10.90;99.90;;;;;;5026473;28;20640;-32
2023/04/16 06:15:45;;;;;;;4.30;3.50;;;10.90;99.90;;;;;;5025536;28;20304;-33
2023/04/16 06:18:20;;;;;;;6.03;3.40;;;10.90;99.90;;;;;;5020905;28;20301;-32
2023/04/16 06:20:54;;;;;;;4.53;3.50;;;10.90;99.90;;;;;;5013951;28;20205;-33
2023/04/16 06:23:28;;;;;;;6.40;4.10;;;10.90;99.90;;;;;;5017972;28;20595;-33
2023/04/16 06:25:57;;;;;;;5.43;2.97;;;10.90;99.90;;;;;;5018880;28;20199;-33
2023/04/16 06:28:27;;;;;;;4.53;3.20;;;10.90;99.90;;;;;;5023406;28;20233;-33
2023/04/16 06:30:54;;;;;;;5.30;3.17;;;10.90;99.90;;;;;;5014379;28;20201;-33
2023/04/16 06:33:26;;;;;;;5.33;3.10;;;10.90;99.90;;;;;;5010959;28;20786;-33
2023/04/16 06:35:53;;;;;;;8.93;3.30;;;10.90;99.90;;;;;;5005824;28;20194;-33
2023/04/16 06:38:22;;;;;;;6.30;3.47;;;10.90;99.90;;;;;;5015980;28;20287;-32
2023/04/16 06:40:49;;;;;;;4.60;3.30;;;10.90;99.90;;;;;;5011640;28;20209;-33
2023/04/16 06:43:17;;;;;;;4.53;3.03;;;10.90;99.90;;;;;;5024271;28;20211;-33
2023/04/16 06:45:51;;;;;;;6.87;3.67;;;10.90;99.90;;;;;;5021116;28;20607;-33
2023/04/16 06:48:23;;;;;;;4.23;2.90;;;11.00;99.90;;;;;;5016456;28;20726;-33
2023/04/16 06:50:53;;;;;;;6.43;3.43;;;11.00;99.90;;;;;;5018131;28;20201;-33
2023/04/16 06:53:20;;;;;;;5.37;3.07;;;11.00;99.90;;;;;;5021177;28;20582;-33
2023/04/16 06:55:54;;;;;;;6.47;3.57;;;11.00;99.90;;;;;;5001935;28;20905;-33
2023/04/16 06:58:23;;;;;;;6.13;3.40;;;11.00;99.90;;;;;;5005947;28;20654;-32
2023/04/16 07:00:51;;;;;;;6.17;3.30;;;10.90;99.90;;;;;;5013441;28;20745;-32
2023/04/16 07:03:18;;;;;;;3.93;3.40;;;10.90;99.90;;;;;;5004760;28;20202;-32
2023/04/16 07:05:45;;;;;;;3.50;3.13;;;10.90;99.90;;;;;;5006200;28;20217;-33
2023/04/16 07:08:12;;;;;;;4.43;3.43;;;11.00;99.90;;;;;;5016936;28;20680;-33
2023/04/16 07:10:44;;;;;;;5.97;3.50;;;11.00;99.90;;;;;;5013163;28;20205;-33
2023/04/16 07:13:13;;;;;;;6.37;3.70;;;11.00;99.90;;;;;;5020139;28;20256;-33
2023/04/16 07:15:45;;;;;;;6.03;3.87;;;11.00;99.90;;;;;;5022754;28;20282;-34
2023/04/16 07:18:14;;;;;;;7.97;3.70;;;11.00;99.90;;;;;;5010293;28;20241;-33
2023/04/16 07:20:44;;;;;;;6.07;3.70;;;11.00;99.90;;;;;;5003304;28;20295;-33
2023/04/16 07:23:13;;;;;;;5.53;3.70;;;11.10;99.90;;;;;;5015126;28;20213;-32
2023/04/16 07:25:43;;;;;;;7.87;4.10;;;11.10;99.90;;;;;;5018669;28;20213;-32
2023/04/16 07:28:15;;;;;;;4.73;4.00;;;11.10;99.90;;;;;;5010638;28;20213;-32
2023/04/16 07:30:42;;;;;;;6.20;4.80;;;11.10;99.90;;;;;;5022018;28;20418;-33
2023/04/16 07:33:12;;;;;;;8.13;4.53;;;11.10;99.90;;;;;;5012088;28;20647;-32
2023/04/16 07:35:41;;;;;;;4.60;4.10;;;11.10;99.90;;;;;;5016479;28;20209;-33
2023/04/16 07:38:09;;;;;;;7.00;4.33;;;11.10;99.90;;;;;;5010302;28;20300;-33
2023/04/16 07:40:36;;;;;;;5.70;4.30;;;11.10;99.90;;;;;;5017723;28;20585;-32
2023/04/16 07:43:03;;;;;;;7.67;5.13;;;11.10;99.90;;;;;;5015358;28;20220;-33
2023/04/16 07:45:32;;;;;;;7.03;4.67;;;11.10;99.90;;;;;;5010957;28;20623;-33
2023/04/16 07:48:04;;;;;;;6.30;4.53;;;11.10;99.90;;;;;;5003343;28;20738;-33
2023/04/16 07:50:37;;;;;;;7.83;4.67;;;11.10;99.90;;;;;;5003250;28;20217;-32
2023/04/16 07:53:07;;;;;;;6.73;4.67;;;11.10;99.90;;;;;;5006678;28;20789;-32
2023/04/16 07:55:36;;;;;;;5.43;4.27;;;11.10;99.90;;;;;;4998397;28;20244;-32
2023/04/16 07:58:08;;;;;;;7.17;4.60;;;11.10;99.90;;;;;;5009455;28;20697;-32
2023/04/16 08:00:38;;;;;;;5.50;4.10;;;11.20;99.90;;;;;;5011179;28;20200;-33
2023/04/16 08:03:07;;;;;;;6.53;4.10;;;11.20;99.90;;;;;;5015590;28;20260;-33
2023/04/16 08:05:35;;;;;;;8.70;5.10;;;11.20;99.90;;;;;;5010065;28;20229;-33
2023/04/16 08:08:05;;;;;;;8.90;4.70;;;11.20;99.90;;;;;;5022188;28;20223;-33
2023/04/16 08:10:34;;;;;;;8.00;4.97;;;11.20;99.90;;;;;;5015538;28;20232;-32
2023/04/16 08:13:06;;;;;;;8.00;5.20;;;11.20;99.90;;;;;;5020650;28;20221;-32
2023/04/16 08:15:37;;;;;;;7.70;4.70;;;11.20;99.90;;;;;;5006458;28;20212;-33
2023/04/16 08:18:14;;;;;;;8.33;5.40;;;11.20;99.90;;;;;;5003020;28;20544;-32
2023/04/16 08:20:41;;;;;;;6.57;5.10;;;11.20;99.90;;;;;;5002009;28;20736;-32
2023/04/16 08:23:09;;;;;;;8.30;5.53;;;11.30;99.90;;;;;;5019703;28;20231;-33
2023/04/16 08:25:38;;;;;;;10.17;6.03;;;11.20;99.90;;;;;;5011374;28;20213;-33
2023/04/16 08:28:05;;;;;;;10.93;5.83;;;11.20;99.90;;;;;;5016892;28;20213;-32
2023/04/16 08:30:37;;;;;;;7.77;5.10;;;11.20;99.90;;;;;;5016600;28;20256;-32
2023/04/16 08:33:06;;;;;;;8.83;5.10;;;11.20;99.90;;;;;;5004152;28;20316;-32
2023/04/16 08:35:34;;;;;;;8.87;5.43;;;11.20;99.90;;;;;;5011886;28;20198;-33
2023/04/16 08:38:06;;;;;;;10.10;4.90;;;11.20;99.90;;;;;;5014870;28;20197;-33
2023/04/16 08:40:38;;;;;;;10.53;5.87;;;11.20;99.90;;;;;;5010364;28;20221;-33
2023/04/16 08:43:12;;;;;;;10.20;5.60;;;11.20;99.90;;;;;;5009717;28;20276;-32
2023/04/16 08:45:43;;;;;;;8.97;5.67;;;11.20;99.90;;;;;;5004946;28;20208;-32
2023/04/16 08:48:11;;;;;;;8.40;5.90;;;11.20;99.90;;;;;;5004912;28;20246;-33
2023/04/16 08:50:42;;;;;;;8.13;5.87;;;11.20;99.90;;;;;;5001302;28;20205;-32
2023/04/16 08:53:21;;;;;;;9.10;5.50;;;11.20;99.90;;;;;;5034216;28;20232;-33
2023/04/16 08:55:52;;;;;;;9.77;5.90;;;11.30;99.90;;;;;;5004239;28;20323;-33
2023/04/16 08:58:21;;;;;;;8.67;4.70;;;11.30;99.90;;;;;;5018302;28;20701;-32
2023/04/16 09:00:49;;;;;;;9.60;6.60;;;11.30;99.90;;;;;;5003369;28;20201;-32
2023/04/16 09:03:18;;;;;;;10.33;5.47;;;11.30;99.90;;;;;;5000573;28;20206;-32
2023/04/16 09:05:46;;;;;;;11.03;5.77;;;11.30;99.90;;;;;;5003539;28;20205;-32
2023/04/16 09:08:17;;;;;;;10.73;6.30;;;11.30;99.90;;;;;;5019925;28;20270;-33
2023/04/16 09:10:45;;;;;;;15.37;6.77;;;11.30;99.90;;;;;;5012176;28;20241;-33
2023/04/16 09:13:15;;;;;;;11.20;6.37;;;11.30;99.90;;;;;;5001586;28;20226;-33
2023/04/16 09:15:43;;;;;;;9.77;6.10;;;11.40;99.90;;;;;;5003607;28;20201;-32
2023/04/16 09:18:13;;;;;;;9.47;6.03;;;11.40;99.90;;;;;;5001000;28;20236;-33
2023/04/16 09:20:43;;;;;;;13.07;6.87;;;11.40;99.90;;;;;;5004223;28;20228;-32
2023/04/16 09:23:12;;;;;;;13.63;7.67;;;11.40;99.90;;;;;;5014699;28;20255;-33
2023/04/16 09:25:42;;;;;;;10.77;6.70;;;11.40;99.90;;;;;;4986775;28;20967;-32
2023/04/16 09:28:12;;;;;;;12.83;7.50;;;11.30;99.90;;;;;;5012759;28;20212;-33
2023/04/16 09:30:39;;;;;;;14.50;7.60;;;11.40;99.90;;;;;;5022167;28;20240;-33
2023/04/16 09:33:25;;;;;;;15.03;8.00;;;11.40;99.90;;;;;;5024214;28;20341;-32
2023/04/16 09:35:52;;;;;;;13.03;7.57;;;11.30;99.90;;;;;;5022966;28;20725;-33
2023/04/16 09:38:20;;;;;;;12.80;7.90;;;11.30;99.90;;;;;;5025567;28;20651;-32
2023/04/16 09:41:04;;;;;;;15.83;8.33;;;11.30;99.90;;;;;;5014936;28;20223;-33
2023/04/16 09:43:31;;;;;;;13.93;7.67;;;11.30;99.90;;;;;;5017008;28;20208;-33
2023/04/16 09:45:58;;;;;;;15.53;7.40;;;11.30;99.90;;;;;;5021060;28;20214;-32
2023/04/16 09:48:33;;;;;;;13.57;7.60;;;11.40;99.90;;;;;;5006230;28;20225;-33
2023/04/16 09:51:00;;;;;;;12.83;7.57;;;11.40;99.90;;;;;;5003625;28;20691;-33
2023/04/16 09:53:29;;;;;;;13.60;8.33;;;11.40;99.90;;;;;;5012527;28;20500;-32
2023/04/16 09:56:01;;;;;;;14.73;8.00;;;11.40;99.90;;;;;;5018325;28;20236;-33
2023/04/16 09:58:28;;;;;;;15.07;8.00;;;11.40;99.90;;;;;;5008880;28;20684;-32
2023/04/16 10:01:02;;;;;;;11.67;7.47;;;11.40;99.90;;;;;;5005151;28;20213;-33
2023/04/16 10:03:34;;;;;;;15.63;7.73;;;11.40;99.90;;;;;;5007931;28;20654;-33
2023/04/16 10:06:21;;;;;;;17.27;7.43;;;11.40;99.90;;;;;;5011819;28;20213;-33
2023/04/16 10:08:57;;;;;;;11.53;7.87;;;11.40;99.90;;;;;;5020192;28;20203;-32
2023/04/16 10:11:28;;;;;;;17.70;7.67;;;11.40;99.90;;;;;;5012215;28;20216;-32
2023/04/16 10:14:00;;;;;;;15.77;7.60;;;11.50;99.90;;;;;;5016068;28;20216;-33
2023/04/16 10:16:28;;;;;;;22.57;9.73;;;11.50;99.90;;;;;;5025044;28;20217;-32
2023/04/16 10:19:00;;;;;;;17.77;9.50;;;11.50;99.90;;;;;;5003813;28;20620;-32
2023/04/16 10:21:32;;;;;;;17.20;8.63;;;11.50;99.90;;;;;;5024630;28;20683;-33
2023/04/16 10:24:03;;;;;;;16.23;8.40;;;11.50;99.90;;;;;;5008320;28;20212;-33
2023/04/16 10:26:34;;;;;;;18.40;8.90;;;11.50;99.90;;;;;;5013342;28;20212;-32
2023/04/16 10:29:08;;;;;;;17.43;9.17;;;11.50;99.90;;;;;;5005072;28;20287;-33
2023/04/16 10:31:37;;;;;;;13.63;8.40;;;11.50;99.90;;;;;;5013403;28;20557;-32
2023/04/16 10:34:06;;;;;;;16.40;8.57;;;11.50;99.90;;;;;;5015964;28;20557;-33
2023/04/16 10:36:37;;;;;;;9.97;7.37;;;11.50;99.90;;;;;;5006698;28;20755;-33
2023/04/16 10:39:14;;;;;;;18.30;8.23;;;11.60;99.90;;;;;;5019464;28;20201;-33
2023/04/16 10:41:44;;;;;;;15.43;7.63;;;11.60;99.90;;;;;;5009056;28;20244;-33
2023/04/16 10:44:20;;;;;;;14.40;7.50;;;11.60;99.90;;;;;;5004746;28;20221;-33
2023/04/16 10:46:50;;;;;;;14.70;7.77;;;11.60;99.90;;;;;;5016546;28;20658;-33
2023/04/16 10:49:25;;;;;;;17.80;8.53;;;11.60;99.90;;;;;;5000106;28;20241;-33
2023/04/16 10:52:00;;;;;;;16.90;8.20;;;11.60;99.90;;;;;;5019335;28;20443;-33
2023/04/16 10:54:29;;;;;;;15.20;7.43;;;11.70;99.90;;;;;;5010369;28;20229;-33
2023/04/16 10:57:02;;;;;;;14.33;8.60;;;11.70;99.90;;;;;;5006773;28;20228;-33
2023/04/16 10:59:33;;;;;;;18.20;7.53;;;11.70;99.90;;;;;;5012783;28;20335;-33
2023/04/16 11:02:11;;;;;;;15.33;7.97;;;11.70;99.90;;;;;;5005788;28;20550;-33
2023/04/16 11:04:42;;;;;;;15.37;8.30;;;11.70;99.90;;;;;;5012245;28;20232;-33
2023/04/16 11:07:19;;;;;;;16.67;7.80;;;11.70;99.90;;;;;;5018758;28;20584;-33
2023/04/16 11:09:53;;;;;;;17.40;8.43;;;11.80;99.90;;;;;;5005505;28;20204;-33
2023/04/16 11:12:26;;;;;;;13.27;7.30;;;11.80;99.90;;;;;;5019217;28;20197;-33
2023/04/16 11:15:06;;;;;;;13.43;8.13;;;11.80;99.90;;;;;;5004547;28;20700;-32
2023/04/16 11:17:35;;;;;;;13.83;7.33;;;11.80;99.90;;;;;;4999931;28;20829;-32
2023/04/16 11:20:08;;;;;;;13.93;7.47;;;11.80;99.90;;;;;;5018372;28;20723;-32
2023/04/16 11:22:53;;;;;;;13.57;8.17;;;11.80;99.90;;;;;;5018006;28;20575;-32
2023/04/16 11:25:23;;;;;;;10.53;7.03;;;11.90;99.90;;;;;;5010454;28;20213;-32
2023/04/16 11:27:53;;;;;;;14.13;7.90;;;11.90;99.90;;;;;;5007931;28;20237;-32
2023/04/16 11:30:34;;;;;;;18.63;9.20;;;11.90;99.90;;;;;;5017757;28;20279;-32
2023/04/16 11:33:13;;;;;;;15.23;8.77;;;11.90;99.90;;;;;;5005849;28;20214;-32
2023/04/16 11:35:42;;;;;;;19.60;9.03;;;11.90;99.90;;;;;;5005163;28;20205;-32
2023/04/16 11:38:11;;;;;;;13.37;9.13;;;11.90;99.90;;;;;;5006726;28;20237;-32
2023/04/16 11:40:43;;;;;;;16.60;9.43;;;12.00;99.90;;;;;;5002836;28;20213;-32
2023/04/16 11:43:16;;;;;;;13.27;7.80;;;11.90;99.90;;;;;;5020189;28;20271;-32
2023/04/16 11:45:58;;;;;;;16.73;10.50;;;11.90;99.90;;;;;;5014697;28;20296;-32
2023/04/16 11:48:45;;;;;;;20.73;10.33;;;12.00;99.90;;;;;;5005331;28;20329;-33
2023/04/16 11:51:13;;;;;;;18.17;9.57;;;12.00;99.90;;;;;;5003059;28;20271;-32
2023/04/16 11:53:53;;;;;;;14.17;9.13;;;12.00;99.90;;;;;;5003115;28;20222;-33
2023/04/16 11:56:28;;;;;;;17.30;9.20;;;12.00;99.90;;;;;;5037247;28;20240;-32
2023/04/16 11:59:12;;;;;;;14.23;9.20;;;12.00;99.90;;;;;;5019778;28;20193;-32
2023/04/16 12:01:48;;;;;;;14.13;9.23;;;12.00;99.90;;;;;;5018720;28;20286;-32
2023/04/16 12:04:23;;;;;;;12.37;8.40;;;12.00;99.90;;;;;;5022528;28;20299;-34
2023/04/16 12:07:08;;;;;;;12.90;8.77;;;12.00;99.90;;;;;;5019161;28;20635;-33
2023/04/16 12:09:40;;;;;;;14.33;9.00;;;12.10;99.90;;;;;;5007866;28;20221;-32
2023/04/16 12:12:29;;;;;;;16.53;9.90;;;12.10;99.90;;;;;;5024700;28;20973;-33
2023/04/16 12:15:01;;;;;;;16.33;10.03;;;12.10;99.90;;;;;;5016329;28;20610;-32
2023/04/16 12:17:31;;;;;;;11.90;8.30;;;12.10;99.90;;;;;;5003792;28;20225;-34
2023/04/16 12:20:04;;;;;;;13.93;9.60;;;12.10;99.90;;;;;;5004797;28;20300;-35
2023/04/16 12:22:40;;;;;;;10.37;8.30;;;12.10;99.90;;;;;;5004439;28;20292;-35
2023/04/16 12:25:16;;;;;;;12.77;8.27;;;12.10;99.90;;;;;;5003368;28;20825;-32
2023/04/16 12:27:47;;;;;;;12.50;9.80;;;12.20;99.90;;;;;;5003698;28;20716;-34
2023/04/16 12:30:30;;;;;;;12.63;9.20;;;12.20;99.90;;;;;;5003654;28;20763;-34
2023/04/16 12:33:18;;;;;;;13.30;9.13;;;12.20;99.90;;;;;;5004499;28;20205;-33
2023/04/16 12:35:48;;;;;;;12.90;9.93;;;12.20;99.90;;;;;;5003691;28;20719;-34
2023/04/16 12:38:16;;;;;;;17.17;10.33;;;12.20;99.90;;;;;;5011873;28;20291;-34
2023/04/16 12:40:43;;;;;;;14.37;10.63;;;12.20;99.90;;;;;;5015534;28;20201;-33
2023/04/16 12:43:13;;;;;;;15.50;10.83;;;12.20;99.90;;;;;;5004754;28;20564;-34
2023/04/16 12:45:43;;;;;;;13.93;10.27;;;12.20;99.90;;;;;;5002353;28;20213;-34
2023/04/16 12:48:10;;;;;;;15.67;12.13;;;12.20;99.90;;;;;;4991452;28;20201;-34
2023/04/16 12:50:42;;;;;;;16.23;11.37;;;12.20;99.90;;;;;;5010608;28;20227;-34
2023/04/16 12:53:10;;;;;;;12.17;10.37;;;12.20;99.90;;;;;;5004044;28;20818;-34
2023/04/16 12:55:38;;;;;;;14.27;10.50;;;12.20;99.90;;;;;;5002617;28;20245;-34
2023/04/16 12:58:12;;;;;;;13.77;11.03;;;12.20;99.90;;;;;;5016163;28;20624;-34
2023/04/16 13:00:42;;;;;;;17.57;11.13;;;12.30;99.90;;;;;;5007625;28;20201;-34